Observations for LONDON HEATHROW, United Kingdom (EGLL)

EGLL 201950Z AUTO 21008KT 9999 NCD 08/06 Q1022 NOSIG
EGLL 201920Z AUTO 21008KT 180V260 9999 NCD 09/06 Q1021 NOSIG
EGLL 201850Z AUTO 22008KT 9999 NCD 09/06 Q1021 NOSIG
EGLL 201820Z AUTO 21010KT 9999 NCD 09/06 Q1021 NOSIG
EGLL 201750Z AUTO 22010KT 180V250 9999 FEW038 10/06 Q1021 NOSIG 
EGLL 201720Z AUTO 22011KT 9999 FEW041 11/06 Q1021 NOSIG 
EGLL 201650Z AUTO 22012KT 9999 FEW040 11/05 Q1020 NOSIG 
EGLL 201620Z AUTO 23014KT 9999 SCT032 BKN038 11/05 Q1020 NOSIG  
EGLL 201550Z AUTO 23015KT 9999 SCT032 12/05 Q1020 NOSIG 
EGLL 201520Z AUTO 23013KT 9999 SCT037 12/05 Q1020 NOSIG 
EGLL 201450Z AUTO 23013KT 9999 BKN034 BKN044 12/05 Q1020 NOSIG  
EGLL 201420Z AUTO 23012KT 9999 BKN035 12/05 Q1020 NOSIG 
EGLL 201350Z AUTO 23014KT 9999 BKN031 12/05 Q1020 NOSIG 
EGLL 201320Z AUTO 23013KT 9999 BKN028 BKN040 12/06 Q1020 NOSIG  
EGLL 201250Z AUTO 23013KT 9999 FEW028 BKN032 BKN042 12/06 Q1020 NOSIG   
EGLL 201220Z AUTO 22011KT 9999 SCT022 BKN039 11/06 Q1020 NOSIG  
EGLL 201150Z AUTO 22011KT 9999 SCT022 OVC038 11/06 Q1020 NOSIG  
EGLL 201120Z AUTO 21012KT 9999 FEW018 SCT026 BKN037 10/06 Q1020 NOSIG   
EGLL 201050Z AUTO 22012KT 9999 BKN017 BKN040 10/06 Q1020 NOSIG  
EGLL 201020Z AUTO 22013KT 9999 BKN016 10/06 Q1020 NOSIG 
EGLL 200950Z AUTO 23012KT 9999 BKN015 09/06 Q1020 NOSIG 
EGLL 200920Z AUTO 22009KT 9999 BKN015 08/06 Q1020 NOSIG 
EGLL 200850Z AUTO 20007KT 9999 NCD 08/06 Q1019 NOSIG
EGLL 200820Z AUTO 20006KT 170V240 9999 NCD 07/06 Q1019 NOSIG
EGLL 200750Z AUTO 19007KT 9999 NCD 07/05 Q1019 NOSIG
EGLL 200720Z AUTO 19008KT 160V230 9999 FEW020 07/06 Q1018 TEMPO BKN012  
EGLL 200650Z AUTO 20008KT 180V250 9999 FEW019 07/06 Q1018 TEMPO BKN012  
EGLL 200620Z AUTO 20008KT 180V260 9999 NCD 07/06 Q1018 NOSIG
EGLL 200550Z AUTO 20006KT 9000 NCD 07/06 Q1018 NOSIG
EGLL 200520Z AUTO 20008KT 9000 NCD 07/06 Q1018 NOSIG
EGLL 200450Z AUTO 20008KT 9000 NCD 07/06 Q1018 NOSIG
EGLL 200420Z AUTO 19008KT 9999 NCD 07/05 Q1018 NOSIG
EGLL 200350Z AUTO 20008KT 9999 NCD 07/05 Q1018 NOSIG
EGLL 200320Z AUTO 20008KT 9999 NCD 07/05 Q1018 NOSIG
EGLL 200250Z AUTO 20008KT 9999 NCD 07/05 Q1018 NOSIG
EGLL 200220Z AUTO 20005KT 9999 NCD 07/05 Q1019 NOSIG
EGLL 200150Z AUTO 19008KT 9999 NCD 07/05 Q1019 NOSIG
EGLL 200120Z AUTO 19008KT 9999 NCD 07/05 Q1019 NOSIG
EGLL 200050Z AUTO 19008KT 9999 FEW046 07/05 Q1019 NOSIG 
EGLL 200020Z AUTO 20006KT 9999 FEW045 07/05 Q1019 NOSIG 
EGLL 192350Z AUTO 21009KT 9999 NCD 07/05 Q1019 NOSIG
EGLL 192320Z AUTO 20008KT 9999 NCD 07/05 Q1019 NOSIG
EGLL 192250Z AUTO 20009KT 170V240 9999 NCD 07/05 Q1019 NOSIG
EGLL 192220Z AUTO 20008KT 170V240 9999 NCD 07/05 Q1019 NOSIG
EGLL 192150Z AUTO 21009KT 180V250 9999 NCD 07/05 Q1019 NOSIG
EGLL 192120Z AUTO 22010G20KT 9999 NCD 07/05 Q1019 NOSIG 
EGLL 192050Z AUTO 21010KT 9999 NCD 07/05 Q1019 NOSIG
EGLL 192020Z AUTO 21009KT 180V250 9999 NCD 08/05 Q1019 NOSIG
EGLL 191950Z AUTO 21009KT 9999 NCD 08/05 Q1019 NOSIG
EGLL 191920Z AUTO 22010KT 9999 NCD 08/05 Q1019 NOSIG